sensor_id;sensor_type;location;lat;lon;timestamp;P1;durP1;ratioP1;P2;durP2;ratioP2
36963;SDS011;22878;48.616;35.326;2022-12-07T00:01:10;25.00;;;6.70;;
36963;SDS011;22878;48.616;35.326;2022-12-07T00:03:43;25.32;;;6.35;;
36963;SDS011;22878;48.616;35.326;2022-12-07T00:06:12;19.80;;;5.78;;
36963;SDS011;22878;48.616;35.326;2022-12-07T00:08:39;25.72;;;6.97;;
36963;SDS011;22878;48.616;35.326;2022-12-07T00:11:07;23.83;;;5.87;;
36963;SDS011;22878;48.616;35.326;2022-12-07T00:13:36;25.72;;;5.85;;
36963;SDS011;22878;48.616;35.326;2022-12-07T00:18:33;15.32;;;4.03;;
36963;SDS011;22878;48.616;35.326;2022-12-07T00:23:30;10.93;;;3.20;;
36963;SDS011;22878;48.616;35.326;2022-12-07T00:26:02;20.80;;;3.80;;
36963;SDS011;22878;48.616;35.326;2022-12-07T00:28:32;21.33;;;4.90;;
36963;SDS011;22878;48.616;35.326;2022-12-07T00:33:33;15.32;;;4.42;;
36963;SDS011;22878;48.616;35.326;2022-12-07T00:36:00;13.30;;;3.60;;
36963;SDS011;22878;48.616;35.326;2022-12-07T00:38:28;14.13;;;3.80;;
36963;SDS011;22878;48.616;35.326;2022-12-07T00:43:33;15.20;;;3.10;;
36963;SDS011;22878;48.616;35.326;2022-12-07T00:45:59;15.32;;;3.17;;
36963;SDS011;22878;48.616;35.326;2022-12-07T00:48:25;11.63;;;2.77;;
36963;SDS011;22878;48.616;35.326;2022-12-07T00:50:51;10.63;;;3.02;;
36963;SDS011;22878;48.616;35.326;2022-12-07T00:53:17;10.45;;;3.02;;
36963;SDS011;22878;48.616;35.326;2022-12-07T00:55:44;7.75;;;2.75;;
36963;SDS011;22878;48.616;35.326;2022-12-07T00:58:11;12.63;;;3.15;;
36963;SDS011;22878;48.616;35.326;2022-12-07T01:00:38;18.98;;;2.77;;
36963;SDS011;22878;48.616;35.326;2022-12-07T01:03:07;14.63;;;3.20;;
36963;SDS011;22878;48.616;35.326;2022-12-07T01:05:36;14.40;;;3.22;;
36963;SDS011;22878;48.616;35.326;2022-12-07T01:08:02;13.68;;;3.02;;
36963;SDS011;22878;48.616;35.326;2022-12-07T01:10:29;15.25;;;3.75;;
36963;SDS011;22878;48.616;35.326;2022-12-07T01:12:56;16.37;;;3.60;;
36963;SDS011;22878;48.616;35.326;2022-12-07T01:15:24;14.55;;;3.08;;
36963;SDS011;22878;48.616;35.326;2022-12-07T01:17:51;13.35;;;3.40;;
36963;SDS011;22878;48.616;35.326;2022-12-07T01:20:17;13.98;;;3.33;;
36963;SDS011;22878;48.616;35.326;2022-12-07T01:22:43;11.10;;;3.08;;
36963;SDS011;22878;48.616;35.326;2022-12-07T01:25:10;18.52;;;3.52;;
36963;SDS011;22878;48.616;35.326;2022-12-07T01:27:37;12.70;;;4.12;;
36963;SDS011;22878;48.616;35.326;2022-12-07T01:30:04;14.18;;;3.45;;
36963;SDS011;22878;48.616;35.326;2022-12-07T01:32:32;17.80;;;3.65;;
36963;SDS011;22878;48.616;35.326;2022-12-07T01:34:59;14.07;;;3.33;;
36963;SDS011;22878;48.616;35.326;2022-12-07T01:37:25;24.60;;;3.80;;
36963;SDS011;22878;48.616;35.326;2022-12-07T01:39:51;15.58;;;3.17;;
36963;SDS011;22878;48.616;35.326;2022-12-07T01:42:17;16.57;;;3.77;;
36963;SDS011;22878;48.616;35.326;2022-12-07T01:45:14;16.82;;;3.08;;
36963;SDS011;22878;48.616;35.326;2022-12-07T01:47:46;9.60;;;3.27;;
36963;SDS011;22878;48.616;35.326;2022-12-07T01:50:18;18.30;;;4.17;;
36963;SDS011;22878;48.616;35.326;2022-12-07T01:52:48;14.47;;;3.47;;
36963;SDS011;22878;48.616;35.326;2022-12-07T01:55:16;15.78;;;4.37;;
36963;SDS011;22878;48.616;35.326;2022-12-07T01:57:45;12.78;;;3.62;;
36963;SDS011;22878;48.616;35.326;2022-12-07T02:00:14;12.78;;;3.50;;
36963;SDS011;22878;48.616;35.326;2022-12-07T02:02:42;18.20;;;3.67;;
36963;SDS011;22878;48.616;35.326;2022-12-07T02:05:17;15.48;;;3.87;;
36963;SDS011;22878;48.616;35.326;2022-12-07T02:07:45;15.00;;;3.58;;
36963;SDS011;22878;48.616;35.326;2022-12-07T02:12:52;13.78;;;3.10;;
36963;SDS011;22878;48.616;35.326;2022-12-07T02:15:21;13.90;;;3.58;;
36963;SDS011;22878;48.616;35.326;2022-12-07T02:17:55;17.70;;;3.72;;
36963;SDS011;22878;48.616;35.326;2022-12-07T02:26:08;14.58;;;3.42;;
36963;SDS011;22878;48.616;35.326;2022-12-07T02:31:23;15.15;;;3.52;;
36963;SDS011;22878;48.616;35.326;2022-12-07T02:33:54;16.27;;;3.60;;
36963;SDS011;22878;48.616;35.326;2022-12-07T02:36:30;12.90;;;3.65;;
36963;SDS011;22878;48.616;35.326;2022-12-07T02:39:03;14.78;;;4.47;;
36963;SDS011;22878;48.616;35.326;2022-12-07T02:41:36;18.57;;;3.62;;
36963;SDS011;22878;48.616;35.326;2022-12-07T02:46:42;11.28;;;3.45;;
36963;SDS011;22878;48.616;35.326;2022-12-07T02:49:12;18.00;;;3.80;;
36963;SDS011;22878;48.616;35.326;2022-12-07T02:51:38;19.48;;;4.25;;
36963;SDS011;22878;48.616;35.326;2022-12-07T02:54:09;13.98;;;3.95;;
36963;SDS011;22878;48.616;35.326;2022-12-07T03:02:46;12.83;;;3.67;;
36963;SDS011;22878;48.616;35.326;2022-12-07T03:11:11;15.85;;;3.95;;
36963;SDS011;22878;48.616;35.326;2022-12-07T03:19:07;12.85;;;3.72;;
36963;SDS011;22878;48.616;35.326;2022-12-07T03:21:40;20.90;;;4.22;;
36963;SDS011;22878;48.616;35.326;2022-12-07T03:24:14;16.12;;;4.33;;
36963;SDS011;22878;48.616;35.326;2022-12-07T03:29:20;17.77;;;4.42;;
36963;SDS011;22878;48.616;35.326;2022-12-07T03:37:49;19.02;;;4.50;;
36963;SDS011;22878;48.616;35.326;2022-12-07T03:43:11;20.02;;;5.35;;
36963;SDS011;22878;48.616;35.326;2022-12-07T03:45:42;14.78;;;4.67;;
36963;SDS011;22878;48.616;35.326;2022-12-07T03:51:06;17.45;;;4.70;;
36963;SDS011;22878;48.616;35.326;2022-12-07T03:56:20;13.35;;;4.45;;
36963;SDS011;22878;48.616;35.326;2022-12-07T03:58:48;17.25;;;4.47;;
36963;SDS011;22878;48.616;35.326;2022-12-07T04:01:14;19.02;;;4.15;;
36963;SDS011;22878;48.616;35.326;2022-12-07T04:03:40;14.33;;;4.42;;
36963;SDS011;22878;48.616;35.326;2022-12-07T04:06:08;16.85;;;4.40;;
36963;SDS011;22878;48.616;35.326;2022-12-07T04:08:34;16.80;;;4.85;;
36963;SDS011;22878;48.616;35.326;2022-12-07T04:11:00;21.82;;;4.58;;
36963;SDS011;22878;48.616;35.326;2022-12-07T04:13:27;23.55;;;5.60;;
36963;SDS011;22878;48.616;35.326;2022-12-07T04:15:53;18.45;;;5.70;;
36963;SDS011;22878;48.616;35.326;2022-12-07T04:18:18;19.42;;;5.25;;
36963;SDS011;22878;48.616;35.326;2022-12-07T04:20:45;16.15;;;5.35;;
36963;SDS011;22878;48.616;35.326;2022-12-07T04:23:11;17.20;;;4.70;;
36963;SDS011;22878;48.616;35.326;2022-12-07T04:25:37;18.90;;;5.37;;
36963;SDS011;22878;48.616;35.326;2022-12-07T04:28:03;16.45;;;4.72;;
36963;SDS011;22878;48.616;35.326;2022-12-07T04:30:29;15.72;;;4.33;;
36963;SDS011;22878;48.616;35.326;2022-12-07T04:32:55;35.05;;;5.75;;
36963;SDS011;22878;48.616;35.326;2022-12-07T04:35:21;19.10;;;5.15;;
36963;SDS011;22878;48.616;35.326;2022-12-07T04:37:47;21.40;;;5.22;;
36963;SDS011;22878;48.616;35.326;2022-12-07T04:40:13;23.47;;;4.95;;
36963;SDS011;22878;48.616;35.326;2022-12-07T04:42:39;18.52;;;5.62;;
36963;SDS011;22878;48.616;35.326;2022-12-07T04:45:06;19.07;;;5.05;;
36963;SDS011;22878;48.616;35.326;2022-12-07T04:47:33;19.92;;;5.22;;
36963;SDS011;22878;48.616;35.326;2022-12-07T04:49:59;26.93;;;5.97;;
36963;SDS011;22878;48.616;35.326;2022-12-07T04:52:27;20.92;;;5.25;;
36963;SDS011;22878;48.616;35.326;2022-12-07T04:54:52;20.82;;;5.45;;
36963;SDS011;22878;48.616;35.326;2022-12-07T04:57:18;21.27;;;5.33;;
36963;SDS011;22878;48.616;35.326;2022-12-07T04:59:44;17.95;;;4.92;;
36963;SDS011;22878;48.616;35.326;2022-12-07T05:02:10;18.30;;;5.30;;
36963;SDS011;22878;48.616;35.326;2022-12-07T05:04:36;21.33;;;5.22;;
36963;SDS011;22878;48.616;35.326;2022-12-07T05:07:02;22.55;;;5.87;;
36963;SDS011;22878;48.616;35.326;2022-12-07T05:09:28;21.75;;;5.60;;
36963;SDS011;22878;48.616;35.326;2022-12-07T05:11:53;34.75;;;7.20;;
36963;SDS011;22878;48.616;35.326;2022-12-07T05:14:19;22.58;;;5.95;;
36963;SDS011;22878;48.616;35.326;2022-12-07T05:16:47;24.15;;;6.65;;
36963;SDS011;22878;48.616;35.326;2022-12-07T05:19:15;25.17;;;5.87;;
36963;SDS011;22878;48.616;35.326;2022-12-07T05:21:43;36.95;;;7.08;;
36963;SDS011;22878;48.616;35.326;2022-12-07T05:24:11;25.65;;;5.75;;
36963;SDS011;22878;48.616;35.326;2022-12-07T05:26:38;18.87;;;5.42;;
36963;SDS011;22878;48.616;35.326;2022-12-07T05:29:04;21.42;;;5.12;;
36963;SDS011;22878;48.616;35.326;2022-12-07T05:31:31;20.08;;;5.65;;
36963;SDS011;22878;48.616;35.326;2022-12-07T05:33:57;19.05;;;5.45;;
36963;SDS011;22878;48.616;35.326;2022-12-07T05:36:23;22.73;;;5.75;;
36963;SDS011;22878;48.616;35.326;2022-12-07T05:38:49;33.88;;;5.70;;
36963;SDS011;22878;48.616;35.326;2022-12-07T05:41:15;20.27;;;5.58;;
36963;SDS011;22878;48.616;35.326;2022-12-07T05:44:01;24.70;;;5.58;;
36963;SDS011;22878;48.616;35.326;2022-12-07T05:46:28;34.15;;;6.67;;
36963;SDS011;22878;48.616;35.326;2022-12-07T05:48:54;25.08;;;5.42;;
36963;SDS011;22878;48.616;35.326;2022-12-07T05:51:20;21.33;;;6.15;;
36963;SDS011;22878;48.616;35.326;2022-12-07T05:53:46;26.57;;;6.83;;
36963;SDS011;22878;48.616;35.326;2022-12-07T05:56:12;22.85;;;5.80;;
36963;SDS011;22878;48.616;35.326;2022-12-07T05:58:39;20.05;;;5.10;;
36963;SDS011;22878;48.616;35.326;2022-12-07T06:01:23;21.12;;;5.53;;
36963;SDS011;22878;48.616;35.326;2022-12-07T06:03:49;23.38;;;5.90;;
36963;SDS011;22878;48.616;35.326;2022-12-07T06:06:15;25.12;;;5.67;;
36963;SDS011;22878;48.616;35.326;2022-12-07T06:08:41;18.23;;;5.65;;
36963;SDS011;22878;48.616;35.326;2022-12-07T06:11:07;36.70;;;8.73;;
36963;SDS011;22878;48.616;35.326;2022-12-07T06:13:52;31.55;;;8.20;;
36963;SDS011;22878;48.616;35.326;2022-12-07T06:16:18;22.98;;;6.17;;
36963;SDS011;22878;48.616;35.326;2022-12-07T06:18:44;24.12;;;6.58;;
36963;SDS011;22878;48.616;35.326;2022-12-07T06:21:10;23.87;;;5.62;;
36963;SDS011;22878;48.616;35.326;2022-12-07T06:23:36;29.42;;;6.00;;
36963;SDS011;22878;48.616;35.326;2022-12-07T06:26:02;19.70;;;4.90;;
36963;SDS011;22878;48.616;35.326;2022-12-07T06:28:28;25.15;;;5.78;;
36963;SDS011;22878;48.616;35.326;2022-12-07T06:33:26;19.82;;;5.28;;
36963;SDS011;22878;48.616;35.326;2022-12-07T06:35:53;20.50;;;5.72;;
36963;SDS011;22878;48.616;35.326;2022-12-07T06:38:19;21.27;;;5.83;;
36963;SDS011;22878;48.616;35.326;2022-12-07T06:40:45;19.87;;;5.60;;
36963;SDS011;22878;48.616;35.326;2022-12-07T06:43:12;21.20;;;5.37;;
36963;SDS011;22878;48.616;35.326;2022-12-07T06:45:38;31.85;;;6.40;;
36963;SDS011;22878;48.616;35.326;2022-12-07T06:48:04;17.00;;;5.67;;
36963;SDS011;22878;48.616;35.326;2022-12-07T06:50:30;22.13;;;5.40;;
36963;SDS011;22878;48.616;35.326;2022-12-07T06:52:56;18.30;;;5.87;;
36963;SDS011;22878;48.616;35.326;2022-12-07T06:55:22;33.58;;;6.22;;
36963;SDS011;22878;48.616;35.326;2022-12-07T06:57:48;21.30;;;5.55;;
36963;SDS011;22878;48.616;35.326;2022-12-07T07:00:14;25.15;;;5.97;;
36963;SDS011;22878;48.616;35.326;2022-12-07T07:02:41;18.60;;;5.55;;
36963;SDS011;22878;48.616;35.326;2022-12-07T07:05:07;25.95;;;5.65;;
36963;SDS011;22878;48.616;35.326;2022-12-07T07:07:34;33.98;;;7.37;;
36963;SDS011;22878;48.616;35.326;2022-12-07T07:10:00;23.57;;;5.70;;
36963;SDS011;22878;48.616;35.326;2022-12-07T07:12:26;21.87;;;6.25;;
36963;SDS011;22878;48.616;35.326;2022-12-07T07:14:52;52.83;;;14.00;;
36963;SDS011;22878;48.616;35.326;2022-12-07T07:17:18;23.62;;;4.95;;
36963;SDS011;22878;48.616;35.326;2022-12-07T07:19:44;18.67;;;5.37;;
36963;SDS011;22878;48.616;35.326;2022-12-07T07:22:10;22.73;;;5.70;;
36963;SDS011;22878;48.616;35.326;2022-12-07T07:24:36;18.30;;;5.67;;
36963;SDS011;22878;48.616;35.326;2022-12-07T07:27:03;23.18;;;5.17;;
36963;SDS011;22878;48.616;35.326;2022-12-07T07:29:29;19.45;;;5.42;;
36963;SDS011;22878;48.616;35.326;2022-12-07T07:31:55;20.35;;;5.60;;
36963;SDS011;22878;48.616;35.326;2022-12-07T07:34:21;20.80;;;5.50;;
36963;SDS011;22878;48.616;35.326;2022-12-07T07:36:47;19.27;;;5.47;;
36963;SDS011;22878;48.616;35.326;2022-12-07T07:39:14;22.87;;;6.08;;
36963;SDS011;22878;48.616;35.326;2022-12-07T07:41:40;19.55;;;5.60;;
36963;SDS011;22878;48.616;35.326;2022-12-07T07:44:06;24.15;;;5.75;;
36963;SDS011;22878;48.616;35.326;2022-12-07T07:46:31;25.00;;;5.92;;
36963;SDS011;22878;48.616;35.326;2022-12-07T07:48:58;16.77;;;5.47;;
36963;SDS011;22878;48.616;35.326;2022-12-07T07:51:24;19.15;;;5.15;;
36963;SDS011;22878;48.616;35.326;2022-12-07T07:53:50;16.40;;;5.42;;
36963;SDS011;22878;48.616;35.326;2022-12-07T07:56:16;19.50;;;5.78;;
36963;SDS011;22878;48.616;35.326;2022-12-07T07:58:42;17.07;;;5.20;;
36963;SDS011;22878;48.616;35.326;2022-12-07T08:01:08;21.40;;;5.50;;
36963;SDS011;22878;48.616;35.326;2022-12-07T08:03:34;26.25;;;6.25;;
36963;SDS011;22878;48.616;35.326;2022-12-07T08:06:02;16.57;;;4.97;;
36963;SDS011;22878;48.616;35.326;2022-12-07T08:08:29;18.65;;;4.65;;
36963;SDS011;22878;48.616;35.326;2022-12-07T08:10:55;24.12;;;5.33;;
36963;SDS011;22878;48.616;35.326;2022-12-07T08:13:21;14.05;;;4.92;;
36963;SDS011;22878;48.616;35.326;2022-12-07T08:15:47;27.67;;;5.60;;
36963;SDS011;22878;48.616;35.326;2022-12-07T08:18:14;21.27;;;5.47;;
36963;SDS011;22878;48.616;35.326;2022-12-07T08:20:41;20.65;;;5.60;;
36963;SDS011;22878;48.616;35.326;2022-12-07T08:23:08;20.00;;;5.83;;
36963;SDS011;22878;48.616;35.326;2022-12-07T08:25:35;18.87;;;5.62;;
36963;SDS011;22878;48.616;35.326;2022-12-07T08:28:02;19.52;;;5.10;;
36963;SDS011;22878;48.616;35.326;2022-12-07T08:30:29;20.70;;;5.55;;
36963;SDS011;22878;48.616;35.326;2022-12-07T08:32:56;21.20;;;5.30;;
36963;SDS011;22878;48.616;35.326;2022-12-07T08:35:22;15.45;;;4.80;;
36963;SDS011;22878;48.616;35.326;2022-12-07T08:37:48;21.95;;;4.92;;
36963;SDS011;22878;48.616;35.326;2022-12-07T08:40:15;16.07;;;5.60;;
36963;SDS011;22878;48.616;35.326;2022-12-07T08:42:43;20.20;;;6.00;;
36963;SDS011;22878;48.616;35.326;2022-12-07T08:45:13;23.83;;;6.62;;
36963;SDS011;22878;48.616;35.326;2022-12-07T08:50:15;21.68;;;5.75;;
36963;SDS011;22878;48.616;35.326;2022-12-07T08:52:43;17.77;;;5.35;;
36963;SDS011;22878;48.616;35.326;2022-12-07T08:55:09;16.30;;;4.95;;
36963;SDS011;22878;48.616;35.326;2022-12-07T08:57:37;15.15;;;5.35;;
36963;SDS011;22878;48.616;35.326;2022-12-07T09:00:05;21.23;;;5.72;;
36963;SDS011;22878;48.616;35.326;2022-12-07T09:02:33;17.07;;;5.22;;
36963;SDS011;22878;48.616;35.326;2022-12-07T09:04:59;14.03;;;5.03;;
36963;SDS011;22878;48.616;35.326;2022-12-07T09:07:25;14.15;;;5.33;;
36963;SDS011;22878;48.616;35.326;2022-12-07T09:09:52;18.65;;;5.12;;
36963;SDS011;22878;48.616;35.326;2022-12-07T09:12:18;17.10;;;5.12;;
36963;SDS011;22878;48.616;35.326;2022-12-07T09:14:46;13.48;;;5.08;;
36963;SDS011;22878;48.616;35.326;2022-12-07T09:17:12;27.07;;;5.20;;
36963;SDS011;22878;48.616;35.326;2022-12-07T09:19:39;17.32;;;4.95;;
36963;SDS011;22878;48.616;35.326;2022-12-07T09:22:07;16.05;;;4.97;;
36963;SDS011;22878;48.616;35.326;2022-12-07T09:24:33;28.07;;;5.03;;
36963;SDS011;22878;48.616;35.326;2022-12-07T09:27:00;15.05;;;4.78;;
36963;SDS011;22878;48.616;35.326;2022-12-07T09:29:26;20.75;;;5.10;;
36963;SDS011;22878;48.616;35.326;2022-12-07T09:31:52;16.42;;;4.67;;
36963;SDS011;22878;48.616;35.326;2022-12-07T09:34:18;16.48;;;5.12;;
36963;SDS011;22878;48.616;35.326;2022-12-07T09:36:45;23.18;;;5.87;;
36963;SDS011;22878;48.616;35.326;2022-12-07T09:39:11;14.73;;;5.15;;
36963;SDS011;22878;48.616;35.326;2022-12-07T09:41:38;13.70;;;4.17;;
36963;SDS011;22878;48.616;35.326;2022-12-07T09:46:39;14.43;;;5.28;;
36963;SDS011;22878;48.616;35.326;2022-12-07T09:51:45;14.50;;;4.67;;
36963;SDS011;22878;48.616;35.326;2022-12-07T09:54:15;14.83;;;4.83;;
36963;SDS011;22878;48.616;35.326;2022-12-07T09:56:42;19.05;;;5.03;;
36963;SDS011;22878;48.616;35.326;2022-12-07T09:59:12;14.15;;;4.90;;
36963;SDS011;22878;48.616;35.326;2022-12-07T10:01:44;19.15;;;5.97;;
36963;SDS011;22878;48.616;35.326;2022-12-07T10:04:15;15.28;;;4.72;;
36963;SDS011;22878;48.616;35.326;2022-12-07T10:09:14;17.12;;;4.75;;
36963;SDS011;22878;48.616;35.326;2022-12-07T10:14:32;13.78;;;4.35;;
36963;SDS011;22878;48.616;35.326;2022-12-07T10:17:01;18.42;;;4.72;;
36963;SDS011;22878;48.616;35.326;2022-12-07T10:19:31;14.75;;;4.85;;
36963;SDS011;22878;48.616;35.326;2022-12-07T10:24:32;17.82;;;4.55;;
36963;SDS011;22878;48.616;35.326;2022-12-07T10:26:59;17.00;;;4.25;;
36963;SDS011;22878;48.616;35.326;2022-12-07T10:29:29;17.05;;;4.85;;
36963;SDS011;22878;48.616;35.326;2022-12-07T10:32:03;17.35;;;4.58;;
36963;SDS011;22878;48.616;35.326;2022-12-07T10:34:42;12.47;;;4.37;;
36963;SDS011;22878;48.616;35.326;2022-12-07T10:37:16;13.50;;;4.42;;
36963;SDS011;22878;48.616;35.326;2022-12-07T10:42:24;13.35;;;4.50;;
36963;SDS011;22878;48.616;35.326;2022-12-07T10:47:44;14.20;;;5.05;;
36963;SDS011;22878;48.616;35.326;2022-12-07T10:50:51;18.67;;;4.90;;
36963;SDS011;22878;48.616;35.326;2022-12-07T10:53:27;15.58;;;4.58;;
36963;SDS011;22878;48.616;35.326;2022-12-07T11:01:33;28.85;;;5.22;;
36963;SDS011;22878;48.616;35.326;2022-12-07T11:07:14;16.42;;;5.15;;
36963;SDS011;22878;48.616;35.326;2022-12-07T11:12:41;16.55;;;5.22;;
36963;SDS011;22878;48.616;35.326;2022-12-07T11:38:19;11.80;;;4.62;;
36963;SDS011;22878;48.616;35.326;2022-12-07T11:40:49;15.25;;;5.30;;
36963;SDS011;22878;48.616;35.326;2022-12-07T11:45:59;14.95;;;4.83;;
36963;SDS011;22878;48.616;35.326;2022-12-07T11:48:37;16.35;;;4.50;;
36963;SDS011;22878;48.616;35.326;2022-12-07T11:51:12;13.50;;;4.55;;
36963;SDS011;22878;48.616;35.326;2022-12-07T11:53:54;16.30;;;5.65;;
36963;SDS011;22878;48.616;35.326;2022-12-07T11:56:27;19.77;;;5.45;;
36963;SDS011;22878;48.616;35.326;2022-12-07T11:59:00;19.57;;;5.20;;
36963;SDS011;22878;48.616;35.326;2022-12-07T12:04:29;22.75;;;5.25;;
36963;SDS011;22878;48.616;35.326;2022-12-07T12:07:30;12.82;;;4.85;;
36963;SDS011;22878;48.616;35.326;2022-12-07T12:10:06;20.92;;;6.42;;
36963;SDS011;22878;48.616;35.326;2022-12-07T12:18:32;19.05;;;5.97;;
36963;SDS011;22878;48.616;35.326;2022-12-07T12:21:34;18.55;;;6.35;;
36963;SDS011;22878;48.616;35.326;2022-12-07T12:24:05;16.07;;;5.40;;
36963;SDS011;22878;48.616;35.326;2022-12-07T12:26:38;17.57;;;5.58;;
36963;SDS011;22878;48.616;35.326;2022-12-07T12:32:04;16.75;;;5.50;;
36963;SDS011;22878;48.616;35.326;2022-12-07T12:42:49;24.35;;;8.15;;
36963;SDS011;22878;48.616;35.326;2022-12-07T12:45:24;18.77;;;6.67;;
36963;SDS011;22878;48.616;35.326;2022-12-07T12:50:36;18.82;;;6.25;;
36963;SDS011;22878;48.616;35.326;2022-12-07T12:58:37;20.60;;;6.20;;
36963;SDS011;22878;48.616;35.326;2022-12-07T13:03:54;22.58;;;5.97;;
36963;SDS011;22878;48.616;35.326;2022-12-07T13:08:56;25.48;;;8.23;;
36963;SDS011;22878;48.616;35.326;2022-12-07T13:11:27;20.30;;;7.08;;
36963;SDS011;22878;48.616;35.326;2022-12-07T13:20:03;25.92;;;8.05;;
36963;SDS011;22878;48.616;35.326;2022-12-07T13:22:35;19.75;;;6.30;;
36963;SDS011;22878;48.616;35.326;2022-12-07T13:30:47;18.77;;;6.22;;
36963;SDS011;22878;48.616;35.326;2022-12-07T13:35:54;17.37;;;6.22;;
36963;SDS011;22878;48.616;35.326;2022-12-07T13:38:25;23.32;;;7.85;;
36963;SDS011;22878;48.616;35.326;2022-12-07T13:43:50;28.23;;;7.75;;
36963;SDS011;22878;48.616;35.326;2022-12-07T13:49:29;21.45;;;8.48;;
36963;SDS011;22878;48.616;35.326;2022-12-07T13:54:43;22.93;;;7.83;;
36963;SDS011;22878;48.616;35.326;2022-12-07T13:57:11;29.20;;;7.90;;
36963;SDS011;22878;48.616;35.326;2022-12-07T13:59:37;24.70;;;8.08;;
36963;SDS011;22878;48.616;35.326;2022-12-07T14:02:17;24.02;;;7.60;;
36963;SDS011;22878;48.616;35.326;2022-12-07T14:04:50;24.55;;;7.80;;
36963;SDS011;22878;48.616;35.326;2022-12-07T14:09:54;19.57;;;7.17;;
36963;SDS011;22878;48.616;35.326;2022-12-07T14:12:27;20.65;;;8.40;;
36963;SDS011;22878;48.616;35.326;2022-12-07T14:14:55;27.67;;;8.18;;
36963;SDS011;22878;48.616;35.326;2022-12-07T14:19:53;30.88;;;9.68;;
36963;SDS011;22878;48.616;35.326;2022-12-07T14:27:47;27.55;;;10.05;;
36963;SDS011;22878;48.616;35.326;2022-12-07T14:30:29;24.30;;;9.13;;
36963;SDS011;22878;48.616;35.326;2022-12-07T14:32:59;26.60;;;9.38;;
36963;SDS011;22878;48.616;35.326;2022-12-07T14:35:28;29.10;;;9.75;;
36963;SDS011;22878;48.616;35.326;2022-12-07T14:37:56;25.52;;;10.30;;
36963;SDS011;22878;48.616;35.326;2022-12-07T14:40:26;23.42;;;9.20;;
36963;SDS011;22878;48.616;35.326;2022-12-07T14:42:57;31.15;;;10.72;;
36963;SDS011;22878;48.616;35.326;2022-12-07T14:45:31;32.65;;;9.98;;
36963;SDS011;22878;48.616;35.326;2022-12-07T14:47:58;29.90;;;9.85;;
36963;SDS011;22878;48.616;35.326;2022-12-07T14:50:24;25.82;;;9.93;;
36963;SDS011;22878;48.616;35.326;2022-12-07T14:52:56;27.07;;;9.50;;
36963;SDS011;22878;48.616;35.326;2022-12-07T14:55:31;21.25;;;8.53;;
36963;SDS011;22878;48.616;35.326;2022-12-07T14:57:57;25.50;;;9.18;;
36963;SDS011;22878;48.616;35.326;2022-12-07T15:00:24;30.05;;;9.40;;
36963;SDS011;22878;48.616;35.326;2022-12-07T15:02:52;26.27;;;9.08;;
36963;SDS011;22878;48.616;35.326;2022-12-07T15:05:19;22.98;;;8.95;;
36963;SDS011;22878;48.616;35.326;2022-12-07T15:07:46;24.65;;;9.20;;
36963;SDS011;22878;48.616;35.326;2022-12-07T15:12:48;26.85;;;8.28;;
36963;SDS011;22878;48.616;35.326;2022-12-07T15:15:14;23.87;;;7.92;;
36963;SDS011;22878;48.616;35.326;2022-12-07T15:17:40;27.75;;;8.45;;
36963;SDS011;22878;48.616;35.326;2022-12-07T15:20:08;26.65;;;9.63;;
36963;SDS011;22878;48.616;35.326;2022-12-07T15:25:05;20.70;;;7.75;;
36963;SDS011;22878;48.616;35.326;2022-12-07T15:27:32;28.92;;;9.23;;
36963;SDS011;22878;48.616;35.326;2022-12-07T15:29:58;26.42;;;9.03;;
36963;SDS011;22878;48.616;35.326;2022-12-07T15:32:25;28.77;;;9.53;;
36963;SDS011;22878;48.616;35.326;2022-12-07T15:34:51;24.90;;;9.03;;
36963;SDS011;22878;48.616;35.326;2022-12-07T15:37:17;23.98;;;8.38;;
36963;SDS011;22878;48.616;35.326;2022-12-07T15:39:43;30.85;;;9.03;;
36963;SDS011;22878;48.616;35.326;2022-12-07T15:42:09;28.20;;;9.30;;
36963;SDS011;22878;48.616;35.326;2022-12-07T15:44:35;27.75;;;9.28;;
36963;SDS011;22878;48.616;35.326;2022-12-07T15:47:19;28.92;;;8.85;;
36963;SDS011;22878;48.616;35.326;2022-12-07T15:49:45;20.00;;;8.40;;
36963;SDS011;22878;48.616;35.326;2022-12-07T15:52:12;23.30;;;8.60;;
36963;SDS011;22878;48.616;35.326;2022-12-07T15:54:38;24.70;;;8.73;;
36963;SDS011;22878;48.616;35.326;2022-12-07T15:57:04;24.57;;;8.10;;
36963;SDS011;22878;48.616;35.326;2022-12-07T15:59:30;27.98;;;8.85;;
36963;SDS011;22878;48.616;35.326;2022-12-07T16:01:57;26.85;;;9.25;;
36963;SDS011;22878;48.616;35.326;2022-12-07T16:04:24;29.77;;;9.55;;
36963;SDS011;22878;48.616;35.326;2022-12-07T16:06:53;26.07;;;9.78;;
36963;SDS011;22878;48.616;35.326;2022-12-07T16:09:19;22.70;;;8.55;;
36963;SDS011;22878;48.616;35.326;2022-12-07T16:11:46;19.15;;;7.50;;
36963;SDS011;22878;48.616;35.326;2022-12-07T16:14:13;27.25;;;8.60;;
36963;SDS011;22878;48.616;35.326;2022-12-07T16:16:39;24.18;;;7.87;;
36963;SDS011;22878;48.616;35.326;2022-12-07T16:19:05;23.65;;;8.15;;
36963;SDS011;22878;48.616;35.326;2022-12-07T16:21:33;26.90;;;9.13;;
36963;SDS011;22878;48.616;35.326;2022-12-07T16:24:02;28.25;;;9.73;;
36963;SDS011;22878;48.616;35.326;2022-12-07T16:26:30;21.05;;;8.33;;
36963;SDS011;22878;48.616;35.326;2022-12-07T16:28:56;21.90;;;8.45;;
36963;SDS011;22878;48.616;35.326;2022-12-07T16:31:24;28.10;;;8.33;;
36963;SDS011;22878;48.616;35.326;2022-12-07T16:33:55;23.05;;;8.05;;
36963;SDS011;22878;48.616;35.326;2022-12-07T16:36:24;23.18;;;7.78;;
36963;SDS011;22878;48.616;35.326;2022-12-07T16:38:52;23.15;;;9.20;;
36963;SDS011;22878;48.616;35.326;2022-12-07T16:41:19;27.58;;;7.92;;
36963;SDS011;22878;48.616;35.326;2022-12-07T16:43:48;20.45;;;7.35;;
36963;SDS011;22878;48.616;35.326;2022-12-07T16:46:14;23.90;;;8.03;;
36963;SDS011;22878;48.616;35.326;2022-12-07T16:48:40;21.55;;;7.65;;
36963;SDS011;22878;48.616;35.326;2022-12-07T16:51:08;25.62;;;7.90;;
36963;SDS011;22878;48.616;35.326;2022-12-07T16:53:38;23.52;;;9.05;;
36963;SDS011;22878;48.616;35.326;2022-12-07T16:56:14;22.75;;;7.97;;
36963;SDS011;22878;48.616;35.326;2022-12-07T16:58:42;20.80;;;7.83;;
36963;SDS011;22878;48.616;35.326;2022-12-07T17:03:42;28.02;;;9.48;;
36963;SDS011;22878;48.616;35.326;2022-12-07T17:06:16;25.43;;;8.33;;
36963;SDS011;22878;48.616;35.326;2022-12-07T17:08:46;23.70;;;9.63;;
36963;SDS011;22878;48.616;35.326;2022-12-07T17:13:50;25.37;;;9.98;;
36963;SDS011;22878;48.616;35.326;2022-12-07T17:16:36;26.02;;;9.15;;
36963;SDS011;22878;48.616;35.326;2022-12-07T17:19:06;27.02;;;9.18;;
36963;SDS011;22878;48.616;35.326;2022-12-07T17:21:35;27.40;;;9.58;;
36963;SDS011;22878;48.616;35.326;2022-12-07T17:24:02;32.15;;;9.93;;
36963;SDS011;22878;48.616;35.326;2022-12-07T17:26:31;30.10;;;9.65;;
36963;SDS011;22878;48.616;35.326;2022-12-07T17:28:58;32.13;;;10.40;;
36963;SDS011;22878;48.616;35.326;2022-12-07T17:31:24;28.85;;;10.72;;
36963;SDS011;22878;48.616;35.326;2022-12-07T17:33:51;25.62;;;9.85;;
36963;SDS011;22878;48.616;35.326;2022-12-07T17:38:50;28.75;;;10.35;;
36963;SDS011;22878;48.616;35.326;2022-12-07T17:41:18;25.20;;;9.00;;
36963;SDS011;22878;48.616;35.326;2022-12-07T17:44:06;27.07;;;10.03;;
36963;SDS011;22878;48.616;35.326;2022-12-07T17:46:36;30.97;;;10.25;;
36963;SDS011;22878;48.616;35.326;2022-12-07T17:49:02;31.35;;;9.60;;